createdAt,value
2022-11-05T00:00:38.979Z,20.65
2022-11-05T00:01:41.501Z,28.01
2022-11-05T00:02:44.223Z,23.89
2022-11-05T00:03:46.776Z,23.61
2022-11-05T00:04:49.241Z,24.93
2022-11-05T00:05:51.755Z,24.28
2022-11-05T00:06:54.327Z,26.45
2022-11-05T00:07:56.800Z,27.05
2022-11-05T00:08:59.177Z,26.91
2022-11-05T00:10:01.633Z,23.56
2022-11-05T00:11:04.123Z,23.25
2022-11-05T00:12:06.589Z,24.65
2022-11-05T00:13:09.319Z,23.63
2022-11-05T00:14:12.133Z,29.00
2022-11-05T00:15:14.514Z,29.01
2022-11-05T00:16:17.430Z,27.67
2022-11-05T00:17:19.796Z,28.46
2022-11-05T00:18:22.154Z,27.04
2022-11-05T00:19:24.552Z,23.02
2022-11-05T00:20:27.190Z,30.58
2022-11-05T00:21:29.677Z,25.53
2022-11-05T00:22:32.145Z,28.86
2022-11-05T00:23:34.504Z,28.80
2022-11-05T00:24:36.973Z,36.77
2022-11-05T00:25:39.332Z,33.15
2022-11-05T00:26:42.031Z,31.84
2022-11-05T00:27:44.387Z,28.23
2022-11-05T00:28:46.750Z,29.01
2022-11-05T00:29:49.214Z,32.46
2022-11-05T00:30:51.669Z,26.76
2022-11-05T00:31:54.075Z,27.75
2022-11-05T00:32:56.438Z,38.40
2022-11-05T00:33:58.816Z,38.24
2022-11-05T00:35:01.178Z,40.14
2022-11-05T00:36:03.839Z,32.38
2022-11-05T00:37:06.263Z,33.57
2022-11-05T00:38:08.724Z,33.83
2022-11-05T00:39:11.087Z,30.25
2022-11-05T00:40:13.847Z,36.46
2022-11-05T00:41:16.212Z,38.79
2022-11-05T00:42:18.704Z,34.56
2022-11-05T00:43:21.067Z,32.35
2022-11-05T00:44:23.465Z,35.27
2022-11-05T00:45:25.927Z,34.91
2022-11-05T00:46:28.692Z,32.98
2022-11-05T00:47:31.089Z,38.13
2022-11-05T00:48:33.548Z,39.50
2022-11-05T00:49:36.002Z,30.47
2022-11-05T00:50:38.792Z,35.18
2022-11-05T00:51:41.159Z,38.15
2022-11-05T00:52:43.665Z,42.30
2022-11-05T00:53:46.130Z,33.20
2022-11-05T00:54:48.584Z,36.33
2022-11-05T00:55:50.946Z,36.59
2022-11-05T00:56:53.513Z,45.69
2022-11-05T00:57:55.900Z,38.45
2022-11-05T00:58:58.262Z,35.89
2022-11-05T01:00:00.626Z,36.22
2022-11-05T01:01:03.085Z,39.29
2022-11-05T01:02:05.636Z,37.33
2022-11-05T01:03:08.671Z,45.54
2022-11-05T01:04:11.644Z,38.41
2022-11-05T01:05:14.021Z,39.58
2022-11-05T01:06:16.981Z,36.25
2022-11-05T01:07:19.342Z,36.01
2022-11-05T01:08:21.771Z,38.89
2022-11-05T01:09:24.134Z,39.05
2022-11-05T01:10:26.728Z,32.81
2022-11-05T01:11:29.166Z,31.75
2022-11-05T01:12:31.541Z,35.95
2022-11-05T01:13:34.062Z,31.18
2022-11-05T01:14:36.526Z,30.87
2022-11-05T01:15:38.982Z,33.61
2022-11-05T01:16:41.438Z,31.44
2022-11-05T01:17:43.796Z,32.17
2022-11-05T01:18:46.186Z,29.19
2022-11-05T01:19:48.561Z,32.37
2022-11-05T01:20:51.219Z,28.85
2022-11-05T01:21:53.591Z,28.45
2022-11-05T01:22:56.048Z,33.45
2022-11-05T01:23:58.469Z,27.49
2022-11-05T01:25:00.933Z,35.96
2022-11-05T01:26:03.400Z,29.81
2022-11-05T01:27:05.756Z,28.74
2022-11-05T01:28:08.222Z,27.39
2022-11-05T01:29:10.786Z,27.35
2022-11-05T01:30:14.002Z,32.00
2022-11-05T01:31:16.477Z,30.27
2022-11-05T01:32:18.914Z,30.65
2022-11-05T01:33:21.375Z,34.85
2022-11-05T01:34:23.774Z,37.58
2022-11-05T01:35:26.236Z,42.31
2022-11-05T01:36:28.816Z,45.01
2022-11-05T01:37:31.186Z,45.95
2022-11-05T01:38:33.644Z,42.99
2022-11-05T01:39:36.028Z,59.81
2022-11-05T01:40:38.591Z,47.32
2022-11-05T01:41:40.948Z,51.62
2022-11-05T01:42:43.311Z,46.45
2022-11-05T01:43:45.771Z,41.65
2022-11-05T01:44:48.280Z,50.25
2022-11-05T01:45:50.732Z,44.32
2022-11-05T01:46:53.397Z,42.19
2022-11-05T01:47:55.846Z,43.97
2022-11-05T01:49:02.963Z,42.73
2022-11-05T01:50:02.621Z,45.20
2022-11-05T01:51:05.072Z,50.27
2022-11-05T01:52:07.425Z,43.93
2022-11-05T01:53:10.077Z,50.59
2022-11-05T01:54:12.662Z,47.60
2022-11-05T01:55:15.039Z,49.81
2022-11-05T01:56:17.695Z,46.68
2022-11-05T01:57:20.057Z,46.56
2022-11-05T01:58:22.420Z,52.94
2022-11-05T01:59:24.881Z,52.21
2022-11-05T02:00:27.484Z,52.77
2022-11-05T02:01:30.079Z,47.94
2022-11-05T02:02:32.887Z,54.59
2022-11-05T02:03:35.476Z,49.63
2022-11-05T02:04:37.855Z,50.59
2022-11-05T02:05:40.637Z,56.04
2022-11-05T02:06:43.091Z,51.96
2022-11-05T02:07:45.453Z,40.49
2022-11-05T02:08:47.899Z,44.13
2022-11-05T02:09:50.252Z,51.35
2022-11-05T02:10:52.949Z,46.58
2022-11-05T02:11:55.386Z,45.07
2022-11-05T02:12:57.741Z,48.35
2022-11-05T02:14:00.103Z,43.14
2022-11-05T02:15:02.462Z,50.00
2022-11-05T02:16:05.046Z,51.32
2022-11-05T02:17:07.516Z,53.52
2022-11-05T02:18:09.957Z,50.32
2022-11-05T02:19:12.315Z,42.74
2022-11-05T02:20:14.773Z,42.51
2022-11-05T02:21:17.183Z,48.45
2022-11-05T02:22:19.535Z,43.00
2022-11-05T02:23:21.885Z,43.02
2022-11-05T02:24:24.247Z,44.43
2022-11-05T02:25:26.701Z,41.17
2022-11-05T02:26:29.277Z,37.06
2022-11-05T02:27:31.638Z,38.14
2022-11-05T02:28:33.990Z,38.79
2022-11-05T02:29:36.352Z,37.83
2022-11-05T02:30:39.011Z,34.63
2022-11-05T02:31:41.414Z,37.17
2022-11-05T02:32:43.881Z,37.09
2022-11-05T02:33:46.243Z,34.15
2022-11-05T02:34:48.698Z,34.51
2022-11-05T02:35:51.148Z,35.54
2022-11-05T02:36:53.852Z,37.23
2022-11-05T02:37:56.202Z,31.85
2022-11-05T02:38:58.578Z,34.87
2022-11-05T02:40:00.936Z,33.86
2022-11-05T02:41:03.297Z,33.33
2022-11-05T02:42:05.710Z,34.77
2022-11-05T02:43:08.453Z,26.83
2022-11-05T02:44:11.228Z,33.82
2022-11-05T02:45:13.580Z,36.71
2022-11-05T02:46:16.337Z,34.16
2022-11-05T02:47:18.733Z,32.74
2022-11-05T02:48:21.106Z,31.85
2022-11-05T02:49:23.549Z,30.42
2022-11-05T02:50:26.008Z,31.93
2022-11-05T02:51:28.480Z,31.60
2022-11-05T02:52:30.868Z,31.75
2022-11-05T02:53:33.229Z,34.51
2022-11-05T02:54:35.591Z,30.04
2022-11-05T02:55:38.046Z,32.15
2022-11-05T02:56:40.502Z,31.76
2022-11-05T02:57:42.890Z,31.62
2022-11-05T02:58:45.255Z,29.05
2022-11-05T02:59:47.710Z,37.29
2022-11-05T03:00:50.272Z,34.61
2022-11-05T03:01:52.911Z,31.47
2022-11-05T03:02:55.684Z,34.39
2022-11-05T03:03:58.282Z,37.02
2022-11-05T03:05:00.735Z,34.13
2022-11-05T03:06:03.287Z,35.62
2022-11-05T03:07:06.248Z,33.84
2022-11-05T03:08:08.829Z,33.83
2022-11-05T03:09:11.263Z,39.03
2022-11-05T03:10:14.320Z,40.98
2022-11-05T03:11:16.784Z,41.53
2022-11-05T03:12:19.234Z,34.27
2022-11-05T03:13:21.641Z,34.83
2022-11-05T03:14:24.001Z,36.90
2022-11-05T03:15:26.452Z,36.26
2022-11-05T03:16:29.105Z,37.21
2022-11-05T03:17:31.573Z,37.43
2022-11-05T03:18:34.065Z,33.03
2022-11-05T03:19:36.691Z,37.89
2022-11-05T03:20:39.178Z,38.93
2022-11-05T03:21:41.532Z,37.37
2022-11-05T03:22:43.921Z,45.25
2022-11-05T03:23:46.402Z,38.81
2022-11-05T03:24:48.882Z,42.24
2022-11-05T03:25:51.355Z,42.73
2022-11-05T03:26:53.925Z,38.91
2022-11-05T03:27:56.279Z,37.75
2022-11-05T03:28:58.673Z,40.30
2022-11-05T03:30:01.127Z,42.66
2022-11-05T03:31:03.486Z,40.64
2022-11-05T03:32:05.836Z,42.40
2022-11-05T03:33:08.367Z,45.01
2022-11-05T03:34:11.079Z,49.93
2022-11-05T03:35:13.428Z,45.89
2022-11-05T03:36:16.387Z,47.53
2022-11-05T03:37:18.744Z,50.75
2022-11-05T03:38:21.111Z,53.97
2022-11-05T03:39:23.492Z,55.54
2022-11-05T03:40:26.142Z,59.11
2022-11-05T03:41:28.498Z,56.57
2022-11-05T03:42:30.863Z,50.77
2022-11-05T03:43:33.326Z,58.27
2022-11-05T03:44:35.710Z,57.67
2022-11-05T03:45:38.063Z,57.97
2022-11-05T03:46:40.616Z,53.29
2022-11-05T03:47:42.965Z,51.57
2022-11-05T03:48:45.358Z,49.63
2022-11-05T03:49:48.099Z,54.07
2022-11-05T03:50:50.684Z,57.64
2022-11-05T03:51:53.151Z,49.51
2022-11-05T03:52:55.603Z,50.45
2022-11-05T03:53:58.058Z,55.35
2022-11-05T03:55:00.442Z,53.59
2022-11-05T03:56:03.090Z,45.58
2022-11-05T03:57:05.449Z,46.75
2022-11-05T03:58:07.812Z,47.73
2022-11-05T03:59:10.168Z,53.91
2022-11-05T04:00:13.254Z,49.46
2022-11-05T04:01:15.684Z,59.85
2022-11-05T04:02:18.416Z,49.80
2022-11-05T04:03:21.243Z,48.45
2022-11-05T04:04:23.709Z,46.50
2022-11-05T04:05:26.098Z,51.48
2022-11-05T04:06:28.565Z,56.01
2022-11-05T04:07:31.031Z,56.15
2022-11-05T04:08:33.494Z,57.69
2022-11-05T04:09:35.857Z,56.24
2022-11-05T04:10:38.490Z,57.89
2022-11-05T04:11:40.849Z,62.00
2022-11-05T04:12:43.305Z,56.25
2022-11-05T04:13:45.669Z,60.07
2022-11-05T04:14:48.033Z,63.75
2022-11-05T04:15:50.544Z,62.65
2022-11-05T04:16:53.005Z,61.09
2022-11-05T04:17:55.462Z,58.49
2022-11-05T04:18:57.821Z,61.08
2022-11-05T04:20:00.285Z,56.44
2022-11-05T04:21:02.911Z,58.12
2022-11-05T04:22:05.275Z,54.99
2022-11-05T04:23:07.827Z,62.64
2022-11-05T04:24:10.648Z,58.74
2022-11-05T04:25:13.188Z,57.91
2022-11-05T04:26:16.059Z,57.63
2022-11-05T04:27:18.555Z,60.71
2022-11-05T04:28:21.021Z,55.95
2022-11-05T04:29:23.536Z,59.41
2022-11-05T04:30:26.037Z,61.27
2022-11-05T04:31:28.476Z,61.56
2022-11-05T04:32:30.890Z,71.71
2022-11-05T04:33:33.245Z,65.12
2022-11-05T04:34:35.608Z,59.45
2022-11-05T04:35:38.073Z,61.48
2022-11-05T04:36:40.458Z,69.35
2022-11-05T04:37:42.813Z,60.47
2022-11-05T04:38:45.170Z,74.36
2022-11-05T04:39:47.534Z,60.34
2022-11-05T04:40:50.193Z,66.11
2022-11-05T04:41:52.702Z,70.28
2022-11-05T04:42:55.071Z,63.59
2022-11-05T04:43:57.433Z,72.73
2022-11-05T04:44:59.799Z,58.19
2022-11-05T04:46:02.166Z,61.57
2022-11-05T04:47:04.694Z,72.57
2022-11-05T04:48:07.053Z,59.90
2022-11-05T04:49:09.444Z,56.26
2022-11-05T04:50:12.376Z,60.66
2022-11-05T04:51:14.835Z,62.01
2022-11-05T04:52:17.244Z,56.64
2022-11-05T04:53:19.607Z,64.31
2022-11-05T04:54:21.975Z,53.27
2022-11-05T04:55:24.435Z,60.67
2022-11-05T04:56:26.896Z,58.79
2022-11-05T04:57:29.282Z,57.88
2022-11-05T04:58:31.755Z,48.03
2022-11-05T04:59:34.208Z,61.61
2022-11-05T05:00:37.024Z,46.34
2022-11-05T05:01:39.809Z,44.20
2022-11-05T05:02:43.772Z,43.34
2022-11-05T05:03:46.131Z,42.96
2022-11-05T05:04:48.476Z,49.25
2022-11-05T05:05:53.749Z,42.10
2022-11-05T05:06:55.454Z,41.25
2022-11-05T05:07:57.857Z,44.12
2022-11-05T05:09:00.210Z,38.38
2022-11-05T05:10:02.764Z,38.67
2022-11-05T05:11:05.123Z,45.91
2022-11-05T05:12:07.570Z,42.33
2022-11-05T05:13:10.695Z,38.13
2022-11-05T05:14:13.539Z,42.49
2022-11-05T05:15:15.908Z,43.25
2022-11-05T05:16:19.465Z,36.36
2022-11-05T05:17:21.923Z,41.56
2022-11-05T05:18:24.635Z,37.93
2022-11-05T05:19:26.989Z,42.00
2022-11-05T05:20:29.549Z,38.22
2022-11-05T05:21:32.011Z,43.08
2022-11-05T05:22:34.463Z,32.18
2022-11-05T05:23:36.849Z,34.09
2022-11-05T05:24:39.210Z,31.40
2022-11-05T05:25:41.617Z,27.83
2022-11-05T05:26:44.069Z,37.37
2022-11-05T05:27:46.423Z,31.52
2022-11-05T05:28:48.910Z,36.51
2022-11-05T05:29:51.371Z,36.99
2022-11-05T05:30:58.600Z,30.93
2022-11-05T05:31:58.305Z,39.52
2022-11-05T05:33:00.649Z,37.53
2022-11-05T05:34:03.029Z,33.53
2022-11-05T05:35:05.378Z,36.53
2022-11-05T05:36:11.485Z,31.81
2022-11-05T05:37:12.901Z,32.35
2022-11-05T05:38:15.251Z,31.31
2022-11-05T05:39:17.644Z,34.06
2022-11-05T05:40:20.213Z,34.68
2022-11-05T05:41:22.576Z,29.00
2022-11-05T05:42:24.919Z,29.31
2022-11-05T05:43:27.264Z,29.82
2022-11-05T05:44:29.665Z,33.95
2022-11-05T05:45:32.015Z,36.65
2022-11-05T05:46:34.672Z,34.69
2022-11-05T05:47:37.021Z,31.37
2022-11-05T05:48:39.369Z,36.46
2022-11-05T05:49:41.760Z,34.12
2022-11-05T05:50:44.306Z,31.24
2022-11-05T05:51:46.648Z,31.51
2022-11-05T05:52:48.990Z,29.53
2022-11-05T05:53:51.342Z,33.25
2022-11-05T05:54:53.731Z,31.66
2022-11-05T05:55:56.076Z,29.16
2022-11-05T05:56:58.627Z,35.03
2022-11-05T05:58:00.972Z,26.94
2022-11-05T05:59:03.400Z,29.63
2022-11-05T06:00:06.074Z,29.50
2022-11-05T06:01:08.419Z,27.52
2022-11-05T06:02:10.842Z,37.47
2022-11-05T06:03:13.714Z,33.34
2022-11-05T06:04:16.664Z,31.35
2022-11-05T06:05:19.033Z,28.96
2022-11-05T06:06:21.681Z,32.36
2022-11-05T06:07:24.029Z,28.51
2022-11-05T06:08:26.467Z,30.14
2022-11-05T06:09:28.813Z,30.16
2022-11-05T06:10:31.309Z,29.47
2022-11-05T06:11:33.737Z,27.94
2022-11-05T06:12:36.111Z,30.48
2022-11-05T06:13:39.602Z,27.88
2022-11-05T06:14:42.071Z,33.20
2022-11-05T06:15:44.589Z,48.49
2022-11-05T06:16:47.288Z,33.77
2022-11-05T06:17:49.882Z,30.89
2022-11-05T06:18:52.238Z,35.93
2022-11-05T06:19:54.676Z,38.28
2022-11-05T06:20:57.416Z,30.33
2022-11-05T06:21:59.866Z,32.15
2022-11-05T06:23:02.231Z,29.46
2022-11-05T06:24:04.597Z,32.26
2022-11-05T06:25:07.018Z,30.87
2022-11-05T06:26:09.993Z,28.92
2022-11-05T06:27:12.407Z,26.12
2022-11-05T06:28:14.884Z,28.89
2022-11-05T06:29:17.245Z,32.60
2022-11-05T06:30:19.694Z,28.74
2022-11-05T06:31:22.079Z,29.74
2022-11-05T06:32:24.453Z,30.88
2022-11-05T06:33:26.813Z,34.15
2022-11-05T06:34:29.304Z,29.86
2022-11-05T06:35:31.677Z,30.85
2022-11-05T06:36:34.302Z,30.41
2022-11-05T06:37:36.658Z,28.28
2022-11-05T06:38:39.009Z,30.23
2022-11-05T06:39:41.362Z,28.18
2022-11-05T06:40:44.009Z,28.43
2022-11-05T06:42:12.184Z,27.65
2022-11-05T06:42:50.792Z,28.94
2022-11-05T06:43:53.294Z,28.52
2022-11-05T06:44:55.750Z,31.91
2022-11-05T06:45:58.135Z,28.83
2022-11-05T06:47:01.576Z,25.47
2022-11-05T06:48:04.004Z,26.81
2022-11-05T06:49:06.361Z,28.41
2022-11-05T06:50:09.211Z,25.38
2022-11-05T06:51:11.576Z,27.61
2022-11-05T06:52:14.066Z,23.37
2022-11-05T06:53:16.500Z,29.15
2022-11-05T06:54:19.132Z,29.49
2022-11-05T06:55:22.811Z,23.81
2022-11-05T06:56:25.564Z,27.42
2022-11-05T06:57:27.994Z,25.26
2022-11-05T06:58:30.352Z,26.13
2022-11-05T06:59:32.706Z,27.67
2022-11-05T07:00:35.302Z,23.90
2022-11-05T07:01:38.116Z,24.11
2022-11-05T07:02:41.004Z,25.61
2022-11-05T07:03:43.443Z,24.95
2022-11-05T07:04:45.897Z,25.07
2022-11-05T07:05:48.258Z,27.91
2022-11-05T07:06:50.734Z,27.06
2022-11-05T07:07:53.233Z,27.31
2022-11-05T07:08:55.690Z,24.43
2022-11-05T07:09:58.032Z,22.82
2022-11-05T07:11:00.486Z,26.27
2022-11-05T07:12:02.837Z,31.81
2022-11-05T07:13:08.471Z,30.26
2022-11-05T07:14:09.501Z,28.16
2022-11-05T07:15:11.856Z,26.81
2022-11-05T07:16:15.018Z,22.81
2022-11-05T07:17:17.381Z,24.51
2022-11-05T07:18:19.775Z,23.38
2022-11-05T07:19:22.130Z,25.36
2022-11-05T07:20:28.225Z,26.25
2022-11-05T07:21:29.087Z,22.74
2022-11-05T07:22:31.437Z,24.01
2022-11-05T07:23:33.824Z,21.43
2022-11-05T07:24:36.270Z,20.98
2022-11-05T07:25:40.437Z,22.96
2022-11-05T07:26:42.981Z,21.28
2022-11-05T07:27:45.334Z,23.18
2022-11-05T07:28:47.730Z,21.35
2022-11-05T07:29:50.094Z,24.44
2022-11-05T07:30:52.738Z,21.75
2022-11-05T07:31:55.104Z,22.80
2022-11-05T07:32:57.451Z,25.19
2022-11-05T07:33:59.833Z,24.55
2022-11-05T07:35:02.208Z,23.99
2022-11-05T07:36:04.858Z,23.36
2022-11-05T07:37:07.287Z,25.07
2022-11-05T07:38:09.639Z,22.96
2022-11-05T07:39:12.039Z,21.83
2022-11-05T07:40:16.286Z,21.84
2022-11-05T07:41:18.639Z,20.32
2022-11-05T07:42:21.004Z,21.67
2022-11-05T07:43:23.441Z,23.33
2022-11-05T07:44:25.932Z,20.58
2022-11-05T07:45:28.291Z,21.86
2022-11-05T07:46:30.948Z,19.37
2022-11-05T07:47:33.293Z,22.27
2022-11-05T07:48:35.647Z,21.52
2022-11-05T07:49:38.042Z,22.02
2022-11-05T07:50:40.709Z,18.80
2022-11-05T07:51:43.058Z,19.31
2022-11-05T07:52:45.406Z,18.77
2022-11-05T07:53:47.953Z,19.23
2022-11-05T07:54:50.334Z,18.06
2022-11-05T07:55:52.781Z,18.09
2022-11-05T07:56:55.433Z,19.90
2022-11-05T07:57:57.785Z,20.25
2022-11-05T07:59:00.148Z,17.85
2022-11-05T08:00:02.842Z,21.13
2022-11-05T08:01:05.386Z,17.28
2022-11-05T08:02:08.087Z,17.67
2022-11-05T08:03:10.898Z,19.73
2022-11-05T08:04:13.859Z,19.37
2022-11-05T08:05:16.237Z,20.90
2022-11-05T08:06:18.887Z,17.86
2022-11-05T08:07:21.265Z,19.11
2022-11-05T08:08:23.615Z,17.27
2022-11-05T08:09:25.963Z,17.47
2022-11-05T08:10:28.645Z,18.41
2022-11-05T08:11:30.990Z,16.27
2022-11-05T08:12:33.345Z,17.63
2022-11-05T08:13:35.699Z,22.67
2022-11-05T08:14:38.042Z,21.60
2022-11-05T08:15:40.440Z,24.26
2022-11-05T08:16:43.140Z,17.13
2022-11-05T08:17:45.586Z,19.03
2022-11-05T08:18:48.060Z,22.07
2022-11-05T08:19:50.439Z,22.69
2022-11-05T08:20:53.238Z,31.00
2022-11-05T08:21:55.596Z,31.81
2022-11-05T08:22:58.045Z,28.27
2022-11-05T08:24:00.503Z,21.47
2022-11-05T08:25:06.764Z,21.91
2022-11-05T08:26:07.463Z,17.06
2022-11-05T08:27:09.806Z,20.17
2022-11-05T08:28:12.261Z,18.99
2022-11-05T08:29:14.700Z,20.70
2022-11-05T08:30:17.749Z,19.57
2022-11-05T08:31:20.141Z,19.90
2022-11-05T08:32:22.606Z,18.29
2022-11-05T08:33:24.957Z,16.70
2022-11-05T08:34:27.302Z,17.91
2022-11-05T08:35:29.662Z,15.63
2022-11-05T08:36:32.324Z,18.90
2022-11-05T08:37:34.665Z,16.05
2022-11-05T08:38:37.010Z,16.92
2022-11-05T08:39:39.658Z,14.66
2022-11-05T08:40:42.299Z,18.65
2022-11-05T08:41:44.698Z,17.40
2022-11-05T08:42:47.052Z,19.73
2022-11-05T08:43:49.505Z,22.97
2022-11-05T08:44:51.845Z,17.50
2022-11-05T08:45:54.197Z,19.01
2022-11-05T08:46:56.783Z,17.64
2022-11-05T08:47:59.128Z,18.50
2022-11-05T08:49:01.475Z,19.37
2022-11-05T08:50:04.223Z,19.48
2022-11-05T08:51:06.567Z,19.63
2022-11-05T08:52:08.954Z,21.11
2022-11-05T08:53:11.788Z,16.07
2022-11-05T08:54:14.562Z,18.53
2022-11-05T08:55:16.902Z,14.10
2022-11-05T08:56:19.549Z,18.36
2022-11-05T08:57:21.929Z,20.97
2022-11-05T08:58:24.274Z,19.45
2022-11-05T08:59:26.617Z,15.15
2022-11-05T09:00:30.255Z,15.84
2022-11-05T09:01:32.743Z,17.87
2022-11-05T09:02:35.387Z,15.34
2022-11-05T09:03:37.989Z,17.23
2022-11-05T09:04:40.420Z,16.89
2022-11-05T09:05:42.771Z,17.16
2022-11-05T09:06:45.336Z,18.99
2022-11-05T09:07:47.719Z,15.95
2022-11-05T09:08:50.063Z,13.62
2022-11-05T09:09:52.420Z,13.56
2022-11-05T09:10:54.768Z,14.37
2022-11-05T09:12:11.751Z,15.79
2022-11-05T09:13:01.412Z,13.58
2022-11-05T09:14:03.758Z,12.83
2022-11-05T09:15:06.101Z,15.38
2022-11-05T09:16:09.361Z,14.33
2022-11-05T09:17:11.707Z,18.99
2022-11-05T09:18:14.116Z,13.36
2022-11-05T09:19:16.553Z,14.43
2022-11-05T09:20:19.098Z,13.69
2022-11-05T09:21:21.459Z,18.32
2022-11-05T09:22:23.805Z,13.31
2022-11-05T09:23:26.193Z,17.05
2022-11-05T09:24:28.585Z,14.29
2022-11-05T09:25:31.012Z,16.79
2022-11-05T09:26:33.664Z,13.98
2022-11-05T09:27:36.104Z,15.77
2022-11-05T09:28:38.890Z,11.40
2022-11-05T09:29:41.237Z,11.67
2022-11-05T09:30:43.702Z,12.71
2022-11-05T09:31:46.127Z,13.86
2022-11-05T09:32:48.492Z,19.47
2022-11-05T09:33:50.880Z,30.81
2022-11-05T09:34:53.319Z,53.25
2022-11-05T09:35:55.689Z,23.15
2022-11-05T09:36:58.523Z,22.64
2022-11-05T09:38:01.428Z,13.48
2022-11-05T09:39:04.163Z,10.86
2022-11-05T09:40:06.823Z,10.64
2022-11-05T09:41:09.268Z,11.35
2022-11-05T09:42:11.611Z,13.57
2022-11-05T09:43:14.098Z,14.99
2022-11-05T09:44:16.841Z,11.67
2022-11-05T09:45:19.183Z,9.22
2022-11-05T09:46:21.839Z,10.67
2022-11-05T09:47:24.201Z,10.56
2022-11-05T09:48:26.647Z,8.98
2022-11-05T09:49:29.026Z,17.87
2022-11-05T09:50:31.674Z,19.41
2022-11-05T09:51:34.012Z,11.29
2022-11-05T09:52:36.357Z,12.38
2022-11-05T09:53:38.700Z,9.88
2022-11-05T09:54:41.082Z,9.43
2022-11-05T09:55:43.423Z,8.68
2022-11-05T09:56:46.093Z,10.03
2022-11-05T09:57:48.490Z,12.93
2022-11-05T09:58:50.906Z,14.57
2022-11-05T09:59:53.299Z,9.53
2022-11-05T10:00:55.914Z,9.40
2022-11-05T10:01:58.711Z,9.46
2022-11-05T10:03:01.411Z,9.04
2022-11-05T10:04:03.770Z,10.28
2022-11-05T10:05:09.701Z,12.25
2022-11-05T10:06:11.716Z,14.12
2022-11-05T10:07:14.063Z,13.49
2022-11-05T10:08:16.415Z,9.67
2022-11-05T10:09:18.770Z,10.12
2022-11-05T10:10:21.555Z,10.58
2022-11-05T10:11:24.096Z,11.20
2022-11-05T10:12:26.440Z,8.11
2022-11-05T10:13:28.786Z,10.44
2022-11-05T10:14:31.139Z,14.13
2022-11-05T10:15:33.521Z,11.12
2022-11-05T10:16:36.168Z,14.89
2022-11-05T10:17:39.291Z,10.56
2022-11-05T10:18:42.180Z,10.91
2022-11-05T10:19:44.526Z,10.94
2022-11-05T10:20:47.208Z,16.73
2022-11-05T10:22:06.315Z,9.55
2022-11-05T10:22:53.906Z,8.66
2022-11-05T10:23:56.247Z,10.43
2022-11-05T10:24:58.593Z,9.43
2022-11-05T10:26:00.974Z,11.47
2022-11-05T10:27:03.326Z,11.99
2022-11-05T10:28:05.670Z,9.67
2022-11-05T10:29:08.018Z,7.56
2022-11-05T10:30:12.170Z,10.22
2022-11-05T10:31:14.663Z,9.60
2022-11-05T10:32:17.011Z,10.91
2022-11-05T10:33:19.359Z,10.97
2022-11-05T10:34:21.713Z,8.91
2022-11-05T10:35:24.056Z,9.59
2022-11-05T10:36:26.640Z,8.96
2022-11-05T10:37:28.982Z,8.37
2022-11-05T10:38:31.323Z,8.77
2022-11-05T10:39:33.667Z,7.63
2022-11-05T10:40:36.420Z,8.08
2022-11-05T10:41:38.803Z,11.93
2022-11-05T10:42:41.159Z,9.34
2022-11-05T10:43:43.598Z,10.13
2022-11-05T10:44:45.949Z,13.77
2022-11-05T10:45:48.302Z,8.60
2022-11-05T10:46:50.885Z,8.81
2022-11-05T10:47:53.334Z,10.63
2022-11-05T10:48:55.707Z,6.08
2022-11-05T10:49:58.059Z,6.44
2022-11-05T10:51:00.613Z,6.15
2022-11-05T10:52:03.001Z,9.17
2022-11-05T10:53:05.356Z,6.49
2022-11-05T10:54:07.808Z,8.13
2022-11-05T10:55:10.240Z,10.11
2022-11-05T10:56:13.092Z,6.01
2022-11-05T10:57:15.480Z,8.97
2022-11-05T10:58:17.823Z,11.24
2022-11-05T10:59:20.281Z,6.89
2022-11-05T11:00:22.821Z,5.80
2022-11-05T11:01:25.294Z,6.52
2022-11-05T11:02:27.968Z,6.21
2022-11-05T11:03:30.507Z,6.31
2022-11-05T11:04:37.694Z,5.66
2022-11-05T11:05:37.127Z,5.63
2022-11-05T11:06:39.770Z,6.45
2022-11-05T11:07:42.176Z,6.98
2022-11-05T11:08:44.622Z,6.26
2022-11-05T11:09:46.976Z,7.05
2022-11-05T11:10:49.520Z,5.46
2022-11-05T11:11:51.893Z,12.07
2022-11-05T11:12:54.374Z,5.97
2022-11-05T11:13:56.742Z,7.45
2022-11-05T11:14:59.174Z,6.83
2022-11-05T11:16:01.586Z,8.01
2022-11-05T11:17:03.932Z,6.15
2022-11-05T11:18:06.425Z,6.37
2022-11-05T11:19:08.772Z,6.61
2022-11-05T11:20:11.937Z,8.50
2022-11-05T11:21:14.291Z,8.14
2022-11-05T11:22:16.647Z,7.76
2022-11-05T11:23:19.145Z,9.57
2022-11-05T11:24:21.494Z,9.45
2022-11-05T11:25:23.846Z,10.01
2022-11-05T11:26:26.495Z,9.19
2022-11-05T11:27:28.840Z,9.26
2022-11-05T11:28:31.223Z,10.01
2022-11-05T11:29:33.567Z,7.94
2022-11-05T11:30:36.019Z,23.59
2022-11-05T11:31:38.374Z,16.93
2022-11-05T11:32:40.724Z,10.97
2022-11-05T11:33:43.452Z,11.82
2022-11-05T11:34:45.813Z,8.92
2022-11-05T11:35:48.165Z,10.06
2022-11-05T11:36:50.745Z,9.25
2022-11-05T11:37:53.206Z,12.84
2022-11-05T11:38:55.581Z,17.53
2022-11-05T11:39:57.936Z,15.33
2022-11-05T11:41:00.791Z,14.63
2022-11-05T11:42:03.144Z,11.81
2022-11-05T11:43:05.501Z,11.91
2022-11-05T11:44:08.031Z,10.75
2022-11-05T11:45:10.390Z,9.73
2022-11-05T11:46:15.110Z,10.87
2022-11-05T11:47:17.749Z,8.24
2022-11-05T11:48:20.102Z,8.67
2022-11-05T11:49:22.519Z,9.25
2022-11-05T11:50:25.069Z,11.95
2022-11-05T11:51:27.431Z,8.10
2022-11-05T11:52:29.792Z,11.50
2022-11-05T11:53:32.140Z,9.94
2022-11-05T11:54:34.525Z,9.33
2022-11-05T11:55:37.025Z,8.95
2022-11-05T11:56:39.545Z,8.17
2022-11-05T11:57:41.900Z,9.37
2022-11-05T11:58:44.262Z,10.84
2022-11-05T12:00:07.750Z,8.81
2022-11-05T12:00:51.215Z,8.23
2022-11-05T12:01:53.632Z,9.91
2022-11-05T12:03:12.214Z,8.25
2022-11-05T12:04:00.489Z,10.68
2022-11-05T12:05:02.898Z,9.84
2022-11-05T12:06:05.466Z,7.03
2022-11-05T12:07:07.921Z,10.38
2022-11-05T12:08:10.280Z,7.68
2022-11-05T12:09:12.973Z,8.96
2022-11-05T12:10:16.014Z,7.93
2022-11-05T12:11:18.493Z,6.72
2022-11-05T12:12:20.989Z,11.31
2022-11-05T12:13:23.433Z,9.62
2022-11-05T12:14:25.789Z,6.49
2022-11-05T12:15:28.216Z,7.70
2022-11-05T12:16:30.585Z,26.33
2022-11-05T12:17:32.932Z,20.00
2022-11-05T12:18:35.454Z,10.01
2022-11-05T12:19:39.686Z,6.53
2022-11-05T12:20:42.534Z,6.75
2022-11-05T12:21:53.494Z,7.28
2022-11-05T12:22:49.290Z,8.04
2022-11-05T12:23:51.944Z,5.71
2022-11-05T12:24:54.548Z,7.01
2022-11-05T12:25:57.075Z,6.49
2022-11-05T12:26:59.743Z,6.43
2022-11-05T12:28:02.099Z,6.68
2022-11-05T12:29:18.572Z,7.89
2022-11-05T12:30:09.639Z,7.84
2022-11-05T12:31:12.034Z,5.69
2022-11-05T12:32:14.436Z,6.03
2022-11-05T12:33:17.430Z,16.50
2022-11-05T12:34:20.018Z,11.01
2022-11-05T12:35:22.484Z,8.98
2022-11-05T12:36:25.288Z,12.65
2022-11-05T12:37:27.636Z,21.50
2022-11-05T12:38:29.987Z,10.07
2022-11-05T12:39:32.441Z,20.27
2022-11-05T12:40:35.092Z,9.39
2022-11-05T12:41:37.461Z,8.11
2022-11-05T12:42:39.809Z,6.49
2022-11-05T12:43:42.167Z,8.51
2022-11-05T12:44:44.623Z,6.33
2022-11-05T12:45:47.071Z,11.68
2022-11-05T12:46:49.556Z,6.26
2022-11-05T12:47:51.903Z,9.43
2022-11-05T12:48:54.246Z,14.64
2022-11-05T12:49:56.598Z,11.95
2022-11-05T12:50:59.251Z,8.42
2022-11-05T12:52:01.686Z,10.37
2022-11-05T12:53:04.065Z,23.02
2022-11-05T12:54:06.403Z,64.49
2022-11-05T12:55:08.754Z,139.83
2022-11-05T12:56:11.404Z,244.55
2022-11-05T12:57:13.825Z,193.43
2022-11-05T12:58:16.279Z,108.23
2022-11-05T12:59:18.635Z,44.63
2022-11-05T13:00:21.187Z,24.98
2022-11-05T13:01:23.633Z,13.63
2022-11-05T13:02:26.325Z,8.61
2022-11-05T13:03:28.888Z,8.99
2022-11-05T13:04:31.323Z,8.15
2022-11-05T13:05:33.670Z,7.77
2022-11-05T13:06:36.219Z,9.33
2022-11-05T13:07:38.585Z,10.14
2022-11-05T13:08:40.981Z,7.70
2022-11-05T13:09:43.355Z,6.78
2022-11-05T13:10:46.311Z,10.88
2022-11-05T13:11:48.742Z,6.74
2022-11-05T13:12:51.126Z,8.16
2022-11-05T13:13:53.471Z,9.19
2022-11-05T13:14:55.811Z,10.05
2022-11-05T13:15:58.269Z,10.06
2022-11-05T13:17:00.814Z,10.54
2022-11-05T13:18:03.201Z,9.35
2022-11-05T13:19:05.541Z,8.55
2022-11-05T13:20:11.786Z,9.31
2022-11-05T13:21:12.746Z,9.95
2022-11-05T13:22:15.087Z,12.38
2022-11-05T13:23:17.473Z,13.09
2022-11-05T13:24:19.825Z,19.52
2022-11-05T13:25:22.172Z,18.38
2022-11-05T13:26:24.515Z,28.66
2022-11-05T13:27:26.869Z,12.81
2022-11-05T13:28:29.254Z,13.57
2022-11-05T13:29:31.603Z,10.33